Latest Weather Observations for Hunters Hill

IDV60801

Issued at 9:32 pm EDT Monday 20 February 2017 (issued every 30 minutes, with the page automatically refreshed every 10 minutes)

About weather observations | Map of weather stations | Latest weather observations for VIC | Other Formats
Station Details ID: 082139 Name: HUNTERS HILL Lat: -36.21 Lon: 147.54 Height: 981.0 m
Data from the previous 72 hours. | See also: Recent months at Hunters Hill
Date/Time
EDT
Temp
°C
App
Temp
°C
Dew
Point
°C
Rel
Hum
%
Delta-T
°C
Wind Press
QNH
hPa
Press
MSL
hPa
Rain since
9am
mm
Dir  Spd
km/h
Gust
km/h
Spd
kts
Gust
kts
20/09:30pm 9.3 7.2 3.9 69 2.5 WSW 4 6 2 3 - - 0.0
20/09:00pm 9.8 7.3 4.0 67 2.7 WSW 6 9 3 5 - - 0.0
20/08:30pm 10.1 7.7 4.3 67 2.7 W 6 9 3 5 - - 0.0
20/08:00pm 10.4 7.9 4.8 68 2.7 WSW 7 11 4 6 - - 0.0
20/07:30pm 10.7 8.3 4.2 64 3.1 W 6 11 3 6 - - 0.0
20/07:00pm 12.3 10.1 5.2 62 3.5 W 6 15 3 8 - - 0.0
20/06:30pm 12.4 9.9 4.9 60 3.6 W 7 15 4 8 - - 0.0
20/06:00pm 13.4 11.0 5.1 57 4.1 WSW 7 17 4 9 - - 0.0
20/05:30pm 13.5 10.7 5.2 57 4.1 W 9 28 5 15 - - 0.0
20/05:00pm 13.4 10.5 4.6 55 4.3 WSW 9 20 5 11 - - 0.0
20/04:30pm 13.3 10.7 6.2 62 3.6 WSW 9 19 5 10 - - 0.0
20/04:00pm 11.4 8.9 4.8 64 3.2 WSW 7 15 4 8 - - 0.0
20/03:30pm 12.0 10.1 6.9 71 2.6 WSW 6 19 3 10 - - 0.0
20/03:00pm 10.5 8.0 6.5 76 2.0 WSW 9 15 5 8 - - 0.0
20/02:30pm 10.2 7.4 5.2 71 2.4 WSW 9 17 5 9 - - 0.0
20/02:00pm 10.4 8.2 6.0 74 2.2 W 7 20 4 11 - - 0.0
20/01:30pm 9.7 7.1 6.1 78 1.8 W 9 19 5 10 - - 0.0
20/01:00pm 8.5 6.5 6.1 85 1.2 SW 6 13 3 7 - - 0.0
20/12:30pm 7.8 5.5 5.8 87 1.0 W 7 20 4 11 - - 0.0
20/12:00pm 8.0 5.4 6.0 87 1.0 W 9 19 5 10 - - 0.0
20/11:30am 7.4 4.2 5.2 86 1.0 W 11 20 6 11 - - 0.0
20/11:00am 6.6 4.3 5.9 95 0.3 WNW 7 17 4 9 - - 0.0
20/10:30am 6.0 3.4 5.9 99 0.0 WNW 9 19 5 10 - - 0.0
20/10:00am 6.0 3.4 5.9 99 0.0 W 9 17 5 9 - - 0.0
20/09:30am 5.4 3.0 5.4 100 0.0 W 7 13 4 7 - - 0.0
20/09:00am 4.8 1.9 4.8 100 0.0 W 9 17 5 9 - - 10.0
20/08:30am 4.3 1.7 4.3 100 0.0 W 7 17 4 9 - - 10.0
20/08:00am 4.0 0.6 4.0 100 0.0 W 11 19 6 10 - - 10.0
20/07:30am 3.8 0.4 3.8 100 0.0 W 11 17 6 9 - - 10.0
20/07:00am 3.9 0.9 3.9 100 0.0 W 9 19 5 10 - - 10.0
20/06:30am 3.8 0.4 3.8 100 0.0 W 11 20 6 11 - - 10.0
20/06:00am 3.8 0.4 3.8 100 0.0 W 11 20 6 11 - - 10.0
20/05:30am 3.8 0.4 3.8 100 0.0 W 11 20 6 11 - - 10.0
20/05:00am 3.6 0.1 3.6 100 0.0 WSW 11 19 6 10 - - 10.0
20/04:30am 3.9 0.5 3.9 100 0.0 WSW 11 22 6 12 - - 10.0
20/04:00am 4.0 0.2 4.0 100 0.0 WSW 13 22 7 12 - - 10.0
20/03:30am 4.0 1.0 4.0 100 0.0 WSW 9 17 5 9 - - 10.0
20/03:00am 4.2 1.2 4.2 100 0.0 WSW 9 20 5 11 - - 10.0
20/02:30am 4.6 1.3 4.6 100 0.0 WSW 11 22 6 12 - - 10.0
20/02:00am 5.0 1.8 5.0 100 0.0 W 11 24 6 13 - - 10.0
20/01:30am 4.9 1.7 4.9 100 0.0 WSW 11 22 6 12 - - 10.0
20/01:00am 4.7 1.4 4.7 100 0.0 WSW 11 20 6 11 - - 10.0
20/12:30am 4.7 1.8 4.7 100 0.0 W 9 19 5 10 - - 9.8
20/12:00am 4.7 1.8 4.7 100 0.0 WSW 9 17 5 9 - - 9.8
 
Date/Time
EDT
Temp
°C
App
Temp
°C
Dew
Point
°C
Rel
Hum
%
Delta-T
°C
Wind Press
QNH
hPa
Press
MSL
hPa
Rain since
9am
mm
Dir  Spd
km/h
Gust
km/h
Spd
kts
Gust
kts
19/11:30pm 4.7 1.4 4.6 99 0.0 WSW 11 20 6 11 - - 9.8
19/11:00pm 5.1 1.1 5.1 100 0.0 WSW 15 28 8 15 - - 9.4
19/10:30pm 5.8 2.0 5.7 99 0.0 WSW 15 39 8 21 - - 6.0
19/10:00pm 6.7 3.5 6.7 100 0.0 W 13 37 7 20 - - 3.8
19/09:30pm 7.2 4.4 7.1 99 0.0 WSW 11 24 6 13 - - 1.0
19/09:00pm 7.5 4.4 7.4 99 0.0 WSW 13 28 7 15 - - 0.2
19/08:30pm 11.0 6.7 1.3 51 4.3 NW 13 22 7 12 - - 0.0
19/08:00pm 11.1 7.2 1.1 50 4.4 NW 11 22 6 12 - - 0.0
19/07:30pm 11.3 8.1 1.0 49 4.6 WNW 7 13 4 7 - - 0.0
19/07:00pm 12.2 8.6 0.6 45 5.1 NW 9 19 5 10 - - 0.0
19/06:30pm 12.0 8.8 0.8 46 5.0 WNW 7 15 4 8 - - 0.0
19/06:00pm 11.9 7.6 0.7 46 4.9 WNW 13 22 7 12 - - 0.0
19/05:30pm 13.1 8.8 0.8 43 5.5 W 13 22 7 12 - - 0.0
19/05:00pm 13.5 9.9 0.9 42 5.7 WSW 9 17 5 9 - - 0.0
19/04:30pm 14.0 10.0 0.6 40 6.0 WNW 11 24 6 13 - - 0.0
19/04:00pm 13.1 8.9 1.5 45 5.3 W 13 22 7 12 - - 0.0
19/03:30pm 12.8 9.2 0.5 43 5.5 WNW 9 22 5 12 - - 0.0
19/03:00pm 14.6 10.5 2.5 44 5.7 W 13 28 7 15 - - 0.0
19/02:30pm 13.0 8.2 0.4 42 5.6 W 15 30 8 16 - - 0.0
19/02:00pm 14.2 10.4 1.5 42 5.8 W 11 24 6 13 - - 0.0
19/01:30pm 12.9 8.2 0.6 43 5.5 W 15 24 8 13 - - 0.0
19/01:00pm 12.9 9.4 1.3 45 5.2 WNW 9 22 5 12 - - 0.0
19/12:30pm 12.4 8.5 1.1 46 5.1 WNW 11 22 6 12 - - 0.0
19/12:00pm 12.5 9.5 1.8 48 4.9 WNW 7 19 4 10 - - 0.0
19/11:30am 11.7 7.5 1.4 49 4.6 W 13 26 7 14 - - 0.0
19/11:00am 11.0 7.5 1.5 52 4.2 W 9 22 5 12 - - 0.0
19/10:30am 10.8 7.3 1.1 51 4.3 W 9 22 5 12 - - 0.0
19/10:00am 10.9 8.1 2.2 55 3.9 SSW 6 13 3 7 - - 0.0
19/09:30am 9.9 7.6 2.7 61 3.3 W 4 7 2 4 - - 0.0
19/09:00am 8.6 6.4 3.4 70 2.4 WNW 4 9 2 5 - - 0.0
19/08:30am 8.1 6.0 3.9 75 1.9 WNW 4 7 2 4 - - 0.0
19/08:00am 7.4 5.2 3.6 77 1.7 WSW 4 9 2 5 - - 0.0
19/07:30am 7.3 5.0 2.6 72 2.1 WSW 4 6 2 3 - - 0.0
19/07:00am 7.4 4.5 1.7 67 2.5 W 6 11 3 6 - - 0.0
19/06:30am 7.8 4.3 1.4 64 2.8 WSW 9 13 5 7 - - 0.0
19/06:00am 7.9 4.9 1.7 65 2.7 WSW 7 11 4 6 - - 0.0
19/05:30am 7.6 5.2 1.9 67 2.5 SW 4 6 2 3 - - 0.0
19/05:00am 7.8 5.4 1.9 66 2.6 SW 4 7 2 4 - - 0.0
19/04:30am 7.7 5.3 2.0 67 2.5 SW 4 6 2 3 - - 0.0
19/04:00am 7.9 5.8 2.0 66 2.6 SW 2 4 1 2 - - 0.0
19/03:30am 7.7 5.2 1.8 66 2.6 SW 4 7 2 4 - - 0.0
19/03:00am 7.3 5.0 2.8 73 2.0 SW 4 6 2 3 - - 0.0
19/02:30am 7.8 6.2 2.7 70 2.3 CALM 0 2 0 1 - - 0.0
19/02:00am 7.9 5.8 1.7 65 2.7 SW 2 6 1 3 - - 0.0
19/01:30am 8.2 5.8 2.4 67 2.6 W 4 6 2 3 - - 0.0
19/01:00am 9.0 6.1 1.7 60 3.2 WSW 6 11 3 6 - - 0.0
19/12:30am 9.5 6.2 0.4 53 3.9 WSW 7 13 4 7 - - 0.0
19/12:00am 10.0 6.3 0.1 50 4.2 WSW 9 15 5 8 - - 0.0
 
Date/Time
EDT
Temp
°C
App
Temp
°C
Dew
Point
°C
Rel
Hum
%
Delta-T
°C
Wind Press
QNH
hPa
Press
MSL
hPa
Rain since
9am
mm
Dir  Spd
km/h
Gust
km/h
Spd
kts
Gust
kts
18/11:30pm 10.1 6.5 0.4 51 4.2 WSW 9 17 5 9 - - 0.0
18/11:00pm 10.2 6.6 0.3 50 4.3 WSW 9 13 5 7 - - 0.0
18/10:30pm 10.7 7.0 0.2 48 4.5 WSW 9 17 5 9 - - 0.0
18/10:00pm 10.5 6.8 0.0 48 4.5 WSW 9 13 5 7 - - 0.0
18/09:30pm 11.4 7.3 -0.1 45 5.0 WSW 11 17 6 9 - - 0.0
18/09:00pm 11.7 8.0 -0.1 44 5.1 SW 9 17 5 9 - - 0.0
18/08:30pm 12.0 8.0 0.5 45 5.1 WSW 11 19 6 10 - - 0.0
18/08:00pm 12.3 9.3 0.7 45 5.1 W 6 15 3 8 - - 0.0
18/07:30pm 13.5 10.3 0.9 42 5.7 W 7 20 4 11 - - 0.0
18/07:00pm 14.4 10.9 1.0 40 6.1 WSW 9 20 5 11 - - 0.0
18/06:30pm 16.4 13.4 2.1 38 6.8 WSW 7 19 4 10 - - 0.0
18/06:00pm 16.5 12.9 2.9 40 6.5 W 11 24 6 13 - - 0.0
18/05:30pm 16.7 13.5 3.1 40 6.6 W 9 26 5 14 - - 0.0
18/05:00pm 16.5 12.8 2.5 39 6.7 W 11 22 6 12 - - 0.0
18/04:30pm 15.8 12.2 2.9 42 6.2 W 11 22 6 12 - - 0.0
18/04:00pm 15.9 12.3 3.0 42 6.2 W 11 24 6 13 - - 0.0
18/03:30pm 16.4 11.9 2.4 39 6.7 WNW 15 32 8 17 - - 0.0
18/03:00pm 17.5 13.8 4.5 42 6.5 WNW 13 32 7 17 - - 0.0
18/02:30pm 16.0 12.4 5.0 48 5.5 NW 13 28 7 15 - - 0.0
18/02:00pm 17.6 14.8 7.1 50 5.5 NW 11 28 6 15 - - 0.0
18/01:30pm 17.5 14.8 7.3 51 5.4 NW 11 24 6 13 - - 0.0
18/01:00pm 17.8 14.4 7.5 51 5.5 WNW 15 28 8 15 - - 0.0
18/12:30pm 17.8 14.8 7.5 51 5.5 NW 13 22 7 12 - - 0.0
18/12:00pm 17.2 14.4 8.4 56 4.7 W 13 24 7 13 - - 0.0
18/11:30am 15.9 14.4 9.1 64 3.7 WNW 7 17 4 9 - - 0.0
18/11:00am 15.1 12.8 9.0 67 3.3 WNW 11 20 6 11 - - 0.0
18/10:30am 13.8 11.7 8.4 70 2.8 WNW 9 19 5 10 - - 0.0
18/10:00am 13.6 11.1 8.2 70 2.8 W 11 17 6 9 - - 0.0
18/09:30am 13.8 12.2 8.6 71 2.8 W 7 13 4 7 - - 0.0
18/09:00am 12.7 10.4 7.6 71 2.6 W 9 15 5 8 - - 1.0
18/08:30am 12.3 9.9 7.0 70 2.7 W 9 13 5 7 - - 1.0
18/08:00am 12.2 10.3 6.7 69 2.8 WNW 6 9 3 5 - - 1.0
18/07:30am 12.2 10.0 6.0 66 3.1 NW 7 13 4 7 - - 1.0
18/07:00am 13.1 10.9 6.0 62 3.6 NNW 7 13 4 7 - - 1.0
18/06:30am 13.2 11.1 5.9 61 3.6 N 6 9 3 5 - - 1.0
18/06:00am 13.3 11.6 5.7 60 3.8 NW 4 6 2 3 - - 1.0
18/05:30am 13.5 11.8 5.7 59 3.9 NW 4 6 2 3 - - 1.0
18/05:00am 13.6 11.8 5.5 58 4.0 WNW 4 6 2 3 - - 1.0
18/04:30am 13.4 11.6 5.3 58 4.0 WNW 4 6 2 3 - - 1.0
18/04:00am 13.7 11.5 5.3 57 4.2 W 6 9 3 5 - - 1.0
18/03:30am 13.7 11.3 5.3 57 4.2 W 7 9 4 5 - - 1.0
18/03:00am 14.0 11.6 5.4 56 4.3 WNW 7 9 4 5 - - 1.0
18/02:30am 14.0 11.7 5.6 57 4.2 WNW 7 11 4 6 - - 1.0
18/02:00am 13.8 11.6 5.4 57 4.2 W 6 9 3 5 - - 1.0
18/01:30am 14.0 11.6 5.4 56 4.3 W 7 15 4 8 - - 1.0
18/01:00am 14.5 11.8 5.6 55 4.5 W 9 15 5 8 - - 1.0
18/12:30am 14.9 12.6 5.7 54 4.6 W 7 13 4 7 - - 1.0
18/12:00am 15.6 12.9 5.5 51 5.1 W 9 17 5 9 - - 1.0
 
Date/Time
EDT
Temp
°C
App
Temp
°C
Dew
Point
°C
Rel
Hum
%
Delta-T
°C
Wind Press
QNH
hPa
Press
MSL
hPa
Rain since
9am
mm
Dir  Spd
km/h
Gust
km/h
Spd
kts
Gust
kts
17/11:30pm 15.9 13.6 5.5 50 5.2 W 7 15 4 8 - - 1.0
17/11:00pm 16.6 14.1 4.9 46 5.9 W 7 13 4 7 - - 1.0
17/10:30pm 17.4 14.5 4.4 42 6.5 W 9 20 5 11 - - 1.0
17/10:00pm 18.6 14.7 3.3 36 7.5 W 13 26 7 14 - - 1.0

Other Formats:

Comma delimited format used in spreadsheet applications
http://www.bom.gov.au/fwo/IDV60801/IDV60801.94878.axf

JavaScript Object Notation format (JSON) in row-major order
http://www.bom.gov.au/fwo/IDV60801/IDV60801.94878.json